Etusivu
METAR-TAF:

METAR-TAF

Lentoasemat :

Draugen, Norja

Leveyspiiri: 64-21-20N, Pituuspiiri: 007-47-30E, korkeus merenpinnasta: 0 m

Tämänhetkinen sää

Tämä raportti tehtiin 12 minuuttia sitten, kello 11.50 UTC
Tuuli 34 kn lännestä
Lämpötila 6°C
Kosteus 61%
Ilmanpaine 1004 hPa

METAR: ENDR 221150Z AUTO 28034KT 06/M01 Q1004

Aika: 14:02 (12:02 UTC)


TAF: puuttuu

Säähavainnot ja -ennusteet yli 4000 lentoasemalta (METAR- ja TAF-raportit).

Käytössä olevat sääasemat on merkitty karttaan keltaisilla ja punaisilla pisteillä.

Aseta hiiri pisteen päälle nähdäksesi sääaseman nimen.

Klikkaa sitten nähdäksesi säähavainnot ja -ennusteet.

Kartan vaihtaminen: klikkaa mustalla rastilla varustettuja vihreitä pisteitä, niin voit zoomata sisään; viivalla varustettua vihreää pistettä, niin voit zoomata ulos tai vihreitä nuolia, niin pääset viereisille kartoille.


METAR-TAF: